Florence, MS (39073)

04:42 AM CDT die 04o August, anno 2015 (GMT -0500)
Whites Cove | | Change Station
CLOSE
Current Station
Personal Weather Stations
Location: Florence, MS
Elevation: 322 ft
Nearby Weather Stations

Elev 322 ft 32.14 °N, 90.14 °W | Updated 8 minutes ago

Serena
Serena
68.4 °F
Feels Like 68.4 °F
N
0.0
Ventus Variabilis Ventus from Magis Auster quam Eurus
Gusts 0.0 mph

Hodie
High -- | Low -- °F
--% Chance of Precip.
Yesterday
High -- | Low -- °F
Precip. -- in
6:17 AM 7:55 PM
Waning Gibbous, 79% visible
Pressio 29.94 in
Visibilitas 10.0 milia passuum
Clouds Serena
Frigus in quo Ros apparet 67 °F
Umor 95%
Rainfall 0.00 in
Snow Depth Not available.
UV 0 out of 12
Pollen 4.00 out of 12
Air Quality Not available.
Flu Activity Not available.
METAR KJAN 040854Z AUTO 17004KT 10SM CLR 24/19 A2995 RMK AO2 SLP136 T02390189 53007

More Conditions Fewer Conditions

Pressio 29.94 in
Visibilitas 10.0 milia passuum
Clouds Serena
Frigus in quo Ros apparet 67 °F
Umor 95%
Rainfall 0.00 in
Snow Depth Not available.
UV 0 out of 12
Pollen 4.00 out of 12
Air Quality Not available.
Flu Activity Not available.
METAR KJAN 040854Z AUTO 17004KT 10SM CLR 24/19 A2995 RMK AO2 SLP136 T02390189 53007

More Conditions Fewer Conditions

10-Day Weather Forecast

×

Almanac

Astronomy

Aug. 04, 2015 Rise Set
Actual Time
Civil Twilight
Nautical Twilight
Astronomical Twilight
Moon
Length Of Visible Light
Length of Day
Tomorrow will be .
, % of the Moon is Illuminated

Today's Extremes

State Highs State Lows

Community

WunderPhotos

Upload Photos

1,843,880 photos uploaded!

WunderBlogs® & News

Nearby

Air Quality

  Air Quality AQ Index Pollutant
Not available.

Snow Depth

Station Depth Elevation

Earthquake Activity

City Distance Mag. Time & Date
Minimum magnitude displayed is 2.5.

Coastal Water Temperatures

Locus Calor

Stations

Nearby Weather Stations

Station Location Temp Frigus Venti Frigus in quo Ros apparet Umor Ventus Precip. Elev Renovata Type